createdAt,value
2018-02-03T00:06:59.193Z,2.8
2018-02-03T00:17:47.134Z,2.6
2018-02-03T00:28:38.698Z,2.4
2018-02-03T00:39:29.924Z,2.2
2018-02-03T00:50:21.306Z,2.0
2018-02-03T01:01:54.280Z,1.8
2018-02-03T01:12:06.720Z,1.8
2018-02-03T01:22:57.343Z,1.4
2018-02-03T01:33:44.086Z,1.3
2018-02-03T01:44:29.117Z,1.2
2018-02-03T01:55:14.764Z,1.2
2018-02-03T02:05:30.439Z,1.2
2018-02-03T02:15:46.966Z,1.2
2018-02-03T02:26:37.691Z,1.1
2018-02-03T02:37:26.054Z,1.2
2018-02-03T02:48:14.409Z,1.2
2018-02-03T02:59:01.248Z,1.2
2018-02-03T03:09:47.178Z,1.2
2018-02-03T03:20:33.066Z,1.2
2018-02-03T03:30:47.807Z,1.2
2018-02-03T03:41:32.183Z,1.2
2018-02-03T03:51:45.857Z,1.2
2018-02-03T04:01:59.055Z,1.2
2018-02-03T04:12:12.354Z,1.2
2018-02-03T04:22:27.737Z,1.2
2018-02-03T04:32:41.682Z,1.2
2018-02-03T04:42:54.916Z,1.2
2018-02-03T04:53:08.331Z,1.3
2018-02-03T05:03:22.071Z,1.3
2018-02-03T05:13:35.400Z,1.3
2018-02-03T05:23:48.458Z,1.3
2018-02-03T05:34:01.988Z,1.3
2018-02-03T05:44:15.526Z,1.3
2018-02-03T05:55:01.118Z,1.3
2018-02-03T06:05:47.505Z,1.4
2018-02-03T06:16:00.893Z,1.3
2018-02-03T06:26:14.243Z,1.4
2018-02-03T06:36:27.985Z,1.4
2018-02-03T06:46:41.526Z,1.4
2018-02-03T06:56:55.107Z,1.4
2018-02-03T07:07:40.386Z,1.4
2018-02-03T07:17:54.078Z,1.4
2018-02-03T07:28:08.301Z,1.3
2018-02-03T07:38:21.505Z,1.3
2018-02-03T07:48:35.328Z,1.3
2018-02-03T07:59:20.252Z,1.4
2018-02-03T08:10:05.911Z,1.4
2018-02-03T08:20:19.741Z,1.4
2018-02-03T08:30:33.701Z,1.5
2018-02-03T08:40:46.890Z,1.6
2018-02-03T08:51:00.467Z,1.7
2018-02-03T09:01:14.756Z,1.9
2018-02-03T09:11:28.729Z,2.0
2018-02-03T09:21:42.033Z,2.2
2018-02-03T09:31:55.178Z,2.4
2018-02-03T09:42:08.599Z,2.7
2018-02-03T09:52:22.660Z,2.9
2018-02-03T10:02:35.697Z,3.0
2018-02-03T10:12:49.998Z,3.1
2018-02-03T10:23:05.230Z,3.3
2018-02-03T10:33:18.991Z,3.6
2018-02-03T10:43:45.851Z,3.9
2018-02-03T10:53:56.965Z,4.3
2018-02-03T11:04:10.794Z,4.8
2018-02-03T11:14:24.709Z,5.3
2018-02-03T11:24:37.215Z,5.8
2018-02-03T11:34:51.094Z,6.1
2018-02-03T11:45:04.558Z,6.3
2018-02-03T11:55:18.366Z,6.4
2018-02-03T12:05:31.795Z,6.4
2018-02-03T12:15:46.643Z,6.4
2018-02-03T12:26:00.600Z,6.4
2018-02-03T12:36:56.099Z,5.7
2018-02-03T12:47:11.118Z,5.7
2018-02-03T12:58:00.294Z,5.5
2018-02-03T13:09:16.258Z,5.5
2018-02-03T13:19:32.744Z,5.5
2018-02-03T13:29:47.781Z,5.9
2018-02-03T13:56:41.789Z,6.1
2018-02-03T14:06:58.200Z,6.0
2018-02-03T14:31:50.752Z,5.5
2018-02-03T14:58:38.205Z,5.2
2018-02-03T15:22:53.577Z,5.0
2018-02-03T15:58:44.588Z,4.5
2018-02-03T16:09:00.228Z,4.4
2018-02-03T16:35:18.825Z,4.1
2018-02-03T17:01:44.987Z,4.0
2018-02-03T17:11:59.754Z,3.9
2018-02-03T17:22:14.905Z,3.8
2018-02-03T18:01:11.010Z,3.3
2018-02-03T18:11:57.513Z,2.9
2018-02-03T18:22:44.338Z,2.8
2018-02-03T18:34:16.270Z,2.6
2018-02-03T18:44:28.167Z,2.6
2018-02-03T19:08:47.166Z,2.1
2018-02-03T19:19:33.761Z,2.0
2018-02-03T19:42:03.288Z,1.8
2018-02-03T19:52:58.846Z,1.6
2018-02-03T20:21:20.976Z,1.4
2018-02-03T20:48:11.952Z,1.2
2018-02-03T21:04:44.692Z,1.1
2018-02-03T21:14:58.500Z,1.1
2018-02-03T21:25:12.843Z,1.0
2018-02-03T21:35:27.067Z,0.9
2018-02-03T21:45:41.339Z,0.9
2018-02-03T21:55:55.388Z,0.8
2018-02-03T22:06:08.487Z,0.7
2018-02-03T22:16:22.655Z,0.6
2018-02-03T22:26:36.148Z,0.6
2018-02-03T22:36:50.412Z,0.5
2018-02-03T22:47:04.530Z,0.5
2018-02-03T22:57:48.798Z,0.4
2018-02-03T23:08:02.440Z,0.4
2018-02-03T23:18:16.066Z,0.3
2018-02-03T23:28:31.152Z,0.3
2018-02-03T23:38:45.325Z,0.3
2018-02-03T23:48:59.459Z,0.2
2018-02-03T23:59:13.424Z,0.1
